HFU weather

Fundicion Residencial Heliport
Miguel Hidalgo, Ciudad de México, Mexico

Public forecast

Using degrees Celsius for public forecast. Weather courtesy of forecast.io.

Closest aviation weather report (METAR) to Fundicion Residencial Heliport

Closest report is Licenciado Benito Juarez International Airport, 6.7 nm (12.3 km) E. Retrieved 2019/12/15 06:55 UTC (46 minutes ago):

MMMX 150655Z 06005KT 7SM SKC 11/02 A3028 NOSIG RMK HZY

Closest aviation forecast (TAF) to Fundicion Residencial Heliport

Closest forecast is Licenciado Benito Juarez International Airport, 6.7 nm (12.3 km) E. Retrieved 2019/12/15 06:09 UTC (2 hours ago):

TAF MMMX 150507Z 1506/1612 20005KT P6SM SKC TX24/1521Z TN08/1512Z FM151900 22010KT P6SM SKC FM160200 22005KT P6SM SCT250